Time;durP1;ratioP1;P1;durP2;ratioP2;P2;SDS_P1;SDS_P2;PMS_P1;PMS_P2;Temp;Humidity;BMP_temperature;BMP_pressure;BME280_temperature;BME280_humidity;BME280_pressure;Samples;Min_cycle;Max_cycle;Signal;HPM_P1;HPM_P2
2023/06/26 00:00:04;;;;;;;17.73;9.07;;;;;;;21.05;100.00;100851.81;5044637;28;20114;-71
2023/06/26 00:02:32;;;;;;;17.15;8.90;;;;;;;21.02;100.00;100849.97;5036168;28;20080;-72
2023/06/26 00:05:02;;;;;;;16.13;9.05;;;;;;;21.04;100.00;100843.81;5043650;28;20049;-72
2023/06/26 00:07:30;;;;;;;17.83;9.45;;;;;;;20.99;100.00;100842.47;5031173;28;20055;-69
2023/06/26 00:09:58;;;;;;;14.32;8.27;;;;;;;21.01;100.00;100848.41;5035854;28;20057;-72
2023/06/26 00:12:25;;;;;;;17.33;8.70;;;;;;;21.02;100.00;100843.53;5028275;28;20056;-72
2023/06/26 00:14:52;;;;;;;15.77;8.70;;;;;;;20.97;100.00;100841.38;5042008;28;20422;-72
2023/06/26 00:17:18;;;;;;;17.17;9.10;;;;;;;20.93;100.00;100852.88;5042523;28;20050;-70
2023/06/26 00:19:45;;;;;;;16.75;9.18;;;;;;;20.91;100.00;100846.13;5044172;28;20052;-73
2023/06/26 00:22:12;;;;;;;16.25;8.43;;;;;;;20.83;100.00;100842.88;5038192;28;20088;-71
2023/06/26 00:24:38;;;;;;;20.35;9.18;;;;;;;20.84;100.00;100838.81;5042211;28;20296;-68
2023/06/26 00:27:05;;;;;;;16.05;9.00;;;;;;;20.83;100.00;100840.06;5039595;28;20139;-71
2023/06/26 00:29:32;;;;;;;18.50;9.32;;;;;;;20.82;100.00;100841.34;5043828;28;20053;-73
2023/06/26 00:31:58;;;;;;;17.00;8.48;;;;;;;20.77;100.00;100839.19;5039765;28;20056;-70
2023/06/26 00:34:25;;;;;;;16.83;8.70;;;;;;;20.76;100.00;100834.03;5041655;28;20543;-73
2023/06/26 00:36:51;;;;;;;17.02;8.52;;;;;;;20.72;100.00;100836.28;5028272;28;20056;-73
2023/06/26 00:39:18;;;;;;;16.67;9.40;;;;;;;20.70;100.00;100831.09;5037230;28;20048;-72
2023/06/26 00:41:44;;;;;;;18.10;9.18;;;;;;;20.71;100.00;100831.88;5041147;28;20053;-72
2023/06/26 00:44:11;;;;;;;16.90;9.23;;;;;;;20.69;100.00;100838.00;5043196;28;20060;-71
2023/06/26 00:46:38;;;;;;;15.75;8.90;;;;;;;20.70;100.00;100836.75;5043827;28;20056;-70
2023/06/26 00:49:04;;;;;;;18.67;9.43;;;;;;;20.68;100.00;100844.13;5035037;28;20483;-71
2023/06/26 00:51:31;;;;;;;17.10;9.20;;;;;;;20.65;100.00;100837.41;5038801;28;20164;-75
2023/06/26 00:54:00;;;;;;;18.65;9.25;;;;;;;20.62;100.00;100832.72;5040901;28;20529;-76
2023/06/26 00:56:27;;;;;;;17.70;9.00;;;;;;;20.59;100.00;100828.03;5037384;28;20057;-72
2023/06/26 00:58:54;;;;;;;16.98;8.68;;;;;;;20.59;100.00;100827.28;5039971;28;20045;-71
2023/06/26 01:01:21;;;;;;;18.55;9.45;;;;;;;20.55;100.00;100830.28;5028226;28;20475;-73
2023/06/26 01:03:52;;;;;;;22.08;9.70;;;;;;;20.54;100.00;100830.75;5041274;28;20053;-70
2023/06/26 01:06:22;;;;;;;16.35;8.82;;;;;;;20.51;100.00;100823.25;5039467;28;20813;-69
2023/06/26 01:08:51;;;;;;;16.55;8.10;;;;;;;20.47;100.00;100817.00;5049765;28;20139;-71
2023/06/26 01:11:19;;;;;;;20.15;9.38;;;;;;;20.43;100.00;100822.88;5039806;28;20140;-70
2023/06/26 01:13:46;;;;;;;17.92;9.40;;;;;;;20.44;100.00;100821.59;5036534;28;20096;-73
2023/06/26 01:16:19;;;;;;;17.48;8.95;;;;;;;20.42;100.00;100814.88;5047158;28;20457;-72
2023/06/26 01:18:48;;;;;;;18.70;9.95;;;;;;;20.42;100.00;100815.63;5047702;28;20163;-70
2023/06/26 01:21:17;;;;;;;16.65;9.13;;;;;;;20.41;100.00;100811.25;5036584;28;20055;-71
2023/06/26 01:24:10;;;;;;;16.48;8.98;;;;;;;20.37;100.00;100819.13;5041008;28;20049;-71
2023/06/26 01:26:39;;;;;;;19.35;9.57;;;;;;;20.31;100.00;100801.31;5048215;28;20140;-74
2023/06/26 01:29:07;;;;;;;18.02;9.82;;;;;;;20.31;100.00;100798.47;5036096;28;20908;-72
2023/06/26 01:31:35;;;;;;;16.75;9.13;;;;;;;20.25;100.00;100803.22;5037243;28;20049;-71
2023/06/26 01:34:02;;;;;;;18.63;9.65;;;;;;;20.25;100.00;100799.63;5041619;28;20059;-72
2023/06/26 01:36:29;;;;;;;16.10;9.00;;;;;;;20.23;100.00;100794.47;5034144;28;20049;-71
2023/06/26 01:38:55;;;;;;;17.20;9.43;;;;;;;20.19;100.00;100787.41;5038770;28;20148;-74
2023/06/26 01:41:22;;;;;;;17.83;9.52;;;;;;;20.14;100.00;100783.22;5041913;28;20140;-72
2023/06/26 01:44:06;;;;;;;20.33;10.23;;;;;;;20.12;100.00;100785.75;5043824;28;20068;-71
2023/06/26 01:46:41;;;;;;;17.97;9.83;;;;;;;20.10;100.00;100795.94;5042956;28;20056;-71
2023/06/26 01:49:11;;;;;;;;;;;;;;;20.08;100.00;100790.78;5041702;28;20049;-69
2023/06/26 01:51:46;;;;;;;19.67;9.25;;;;;;;20.00;100.00;100789.59;5041175;28;19964;-71
2023/06/26 01:54:23;;;;;;;16.63;9.48;;;;;;;20.00;100.00;100792.41;5046376;28;20102;-69
2023/06/26 01:56:52;;;;;;;17.95;9.45;;;;;;;19.98;100.00;100789.28;5046601;28;20080;-73
2023/06/26 01:59:20;;;;;;;17.63;10.13;;;;;;;19.98;100.00;100788.50;5046142;28;20056;-72
2023/06/26 02:01:47;;;;;;;18.88;10.13;;;;;;;19.93;100.00;100789.16;5045689;28;20152;-69
2023/06/26 02:04:14;;;;;;;18.55;9.90;;;;;;;19.89;100.00;100795.00;5048303;28;20057;-74
2023/06/26 02:06:41;;;;;;;20.55;9.45;;;;;;;19.85;100.00;100788.75;5035161;28;20076;-72
2023/06/26 02:09:07;;;;;;;17.52;10.18;;;;;;;19.86;100.00;100797.97;5043303;28;20648;-72
2023/06/26 02:11:34;;;;;;;17.70;9.25;;;;;;;19.84;100.00;100790.00;5043744;28;20464;-73
2023/06/26 02:14:00;;;;;;;17.50;9.63;;;;;;;19.81;100.00;100790.94;5037797;28;20472;-73
2023/06/26 02:16:27;;;;;;;17.58;9.10;;;;;;;19.79;100.00;100802.72;5043849;28;20052;-72
2023/06/26 02:18:53;;;;;;;17.58;9.80;;;;;;;19.77;100.00;100802.44;5040777;28;20515;-73
2023/06/26 02:21:20;;;;;;;20.23;9.98;;;;;;;19.76;100.00;100797.25;5041294;28;20076;-73
2023/06/26 02:23:46;;;;;;;16.05;9.75;;;;;;;19.75;100.00;100792.91;5042647;28;20096;-72
2023/06/26 02:26:13;;;;;;;19.52;9.15;;;;;;;19.72;100.00;100799.50;5044484;28;20053;-71
2023/06/26 02:28:40;;;;;;;16.30;9.25;;;;;;;19.68;100.00;100801.72;5038164;28;20511;-72
2023/06/26 02:31:06;;;;;;;17.52;9.57;;;;;;;19.62;100.00;100795.16;5047606;28;20155;-76
2023/06/26 02:33:33;;;;;;;16.30;9.30;;;;;;;19.60;100.00;100801.28;5033369;28;20111;-71
2023/06/26 02:36:00;;;;;;;18.02;9.38;;;;;;;19.58;100.00;100797.38;5038164;28;20528;-72
2023/06/26 02:38:26;;;;;;;17.63;9.88;;;;;;;19.58;100.00;100800.94;5034228;28;20081;-72
2023/06/26 02:40:53;;;;;;;18.05;9.73;;;;;;;19.58;100.00;100797.38;5037580;28;20084;-73
2023/06/26 02:43:19;;;;;;;18.10;10.10;;;;;;;19.54;100.00;100811.63;5046920;28;20111;-73
2023/06/26 02:45:46;;;;;;;16.63;9.23;;;;;;;19.49;100.00;100817.13;5044868;28;20083;-70
2023/06/26 02:48:12;;;;;;;18.00;10.07;;;;;;;19.45;100.00;100808.81;5039520;28;20156;-72
2023/06/26 02:50:39;;;;;;;18.25;9.68;;;;;;;19.44;100.00;100812.91;5047646;28;20083;-71
2023/06/26 02:53:06;;;;;;;18.92;9.75;;;;;;;19.39;100.00;100802.28;5039630;28;20087;-71
2023/06/26 02:55:34;;;;;;;18.52;10.68;;;;;;;19.38;100.00;100800.69;5031508;28;20042;-72
2023/06/26 02:58:01;;;;;;;17.13;9.32;;;;;;;19.41;100.00;100807.44;5043224;28;20083;-72
2023/06/26 03:00:29;;;;;;;19.33;9.52;;;;;;;19.41;100.00;100819.47;5033755;28;20076;-74
2023/06/26 03:02:57;;;;;;;15.88;8.98;;;;;;;19.39;100.00;100816.38;5044116;28;20072;-69
2023/06/26 03:05:23;;;;;;;16.95;9.38;;;;;;;19.33;100.00;100818.28;5038223;28;20041;-70
2023/06/26 03:07:50;;;;;;;16.08;9.45;;;;;;;19.28;100.00;100818.13;5046555;28;20136;-72
2023/06/26 03:10:16;;;;;;;18.40;9.32;;;;;;;19.26;100.00;100823.44;5030403;28;20480;-72
2023/06/26 03:12:43;;;;;;;22.13;10.25;;;;;;;19.23;100.00;100819.56;5032368;28;20132;-71
2023/06/26 03:15:11;;;;;;;18.70;10.40;;;;;;;19.22;100.00;100820.03;5044451;28;20529;-72
2023/06/26 03:17:37;;;;;;;15.95;9.38;;;;;;;19.19;100.00;100832.25;5036537;28;20136;-71
2023/06/26 03:20:06;;;;;;;16.17;8.88;;;;;;;19.14;100.00;100830.09;5045189;28;20473;-72
2023/06/26 03:22:34;;;;;;;20.23;10.45;;;;;;;19.08;100.00;100827.13;5044742;28;20053;-68
2023/06/26 03:25:02;;;;;;;20.10;10.00;;;;;;;19.07;100.00;100831.19;5044649;28;20805;-73
2023/06/26 03:27:28;;;;;;;18.25;9.70;;;;;;;19.02;100.00;100834.66;5033490;28;20145;-70
2023/06/26 03:29:55;;;;;;;17.73;8.70;;;;;;;19.05;100.00;100832.91;5045625;28;20045;-72
2023/06/26 03:32:21;;;;;;;17.08;8.65;;;;;;;19.17;100.00;100831.97;5042457;28;20080;-71
2023/06/26 03:34:48;;;;;;;21.55;9.73;;;;;;;19.25;100.00;100844.44;5041213;28;20045;-73
2023/06/26 03:37:15;;;;;;;16.02;8.32;;;;;;;19.27;100.00;100837.06;5035163;28;20076;-74
2023/06/26 03:39:41;;;;;;;19.33;8.68;;;;;;;19.36;100.00;100839.09;5042344;28;20049;-71
2023/06/26 03:42:08;;;;;;;16.48;8.23;;;;;;;19.54;100.00;100848.28;5031930;28;20130;-71
2023/06/26 03:44:34;;;;;;;16.92;7.95;;;;;;;19.64;100.00;100837.75;5026566;28;20649;-73
2023/06/26 03:47:01;;;;;;;16.23;8.40;;;;;;;19.79;100.00;100841.44;5034445;28;20080;-71
2023/06/26 03:49:27;;;;;;;18.33;8.95;;;;;;;19.87;100.00;100845.47;5026860;28;20187;-71
2023/06/26 03:51:54;;;;;;;17.60;8.35;;;;;;;19.93;100.00;100840.75;5027300;28;20073;-71
2023/06/26 03:54:21;;;;;;;17.33;7.72;;;;;;;20.01;100.00;100841.94;5026973;28;20052;-75
2023/06/26 03:56:47;;;;;;;16.73;8.50;;;;;;;20.06;100.00;100849.75;5026317;28;20080;-71
2023/06/26 03:59:14;;;;;;;32.05;10.88;;;;;;;20.12;100.00;100844.22;5027556;28;20064;-72
2023/06/26 04:01:41;;;;;;;20.80;8.43;;;;;;;20.12;100.00;100844.22;5027752;28;20057;-70
2023/06/26 04:04:07;;;;;;;17.55;8.52;;;;;;;20.21;100.00;100853.41;5040395;28;20140;-72
2023/06/26 04:06:34;;;;;;;18.38;7.97;;;;;;;20.19;100.00;100847.47;5038327;28;20045;-72
2023/06/26 04:09:00;;;;;;;19.90;8.82;;;;;;;20.23;100.00;100855.78;5038991;28;20076;-73
2023/06/26 04:11:27;;;;;;;17.90;8.25;;;;;;;20.27;100.00;100856.38;5035279;28;20558;-74
2023/06/26 04:13:54;;;;;;;15.65;7.72;;;;;;;20.27;100.00;100854.34;5042597;28;20060;-73
2023/06/26 04:16:24;;;;;;;16.42;8.50;;;;;;;20.27;100.00;100864.84;5044939;28;20511;-69
2023/06/26 04:18:52;;;;;;;21.15;8.43;;;;;;;20.36;100.00;100868.41;5036983;28;20049;-71
2023/06/26 04:21:19;;;;;;;17.60;7.65;;;;;;;20.27;100.00;100878.97;5045604;28;20140;-71
2023/06/26 04:23:47;;;;;;;18.15;8.57;;;;;;;20.39;100.00;100875.91;5044875;28;20139;-71
2023/06/26 04:26:14;;;;;;;9.70;3.75;;;;;;;20.27;100.00;100879.75;5040324;28;20053;-74
2023/06/26 04:28:41;;;;;;;14.57;7.30;;;;;;;20.30;100.00;100883.66;5046127;28;20063;-74
2023/06/26 04:31:08;;;;;;;19.02;9.30;;;;;;;20.43;100.00;100887.03;5041015;28;20077;-73
2023/06/26 04:33:36;;;;;;;21.73;9.50;;;;;;;20.39;100.00;100892.84;5031899;28;20069;-72
2023/06/26 04:36:04;;;;;;;17.17;8.32;;;;;;;20.37;100.00;100892.56;5035665;28;20060;-72
2023/06/26 04:38:34;;;;;;;16.38;8.48;;;;;;;20.39;100.00;100901.31;5041917;28;20044;-72
2023/06/26 04:41:01;;;;;;;22.00;10.70;;;;;;;20.47;100.00;100898.91;5031533;28;20132;-73
2023/06/26 04:43:28;;;;;;;17.20;8.65;;;;;;;20.49;100.00;100896.41;5042612;28;20053;-71
2023/06/26 04:45:54;;;;;;;16.63;9.05;;;;;;;20.54;100.00;100893.69;5043046;28;20552;-73
2023/06/26 04:48:21;;;;;;;13.68;7.07;;;;;;;20.44;100.00;100899.88;5034713;28;20056;-72
2023/06/26 04:50:53;;;;;;;19.13;8.75;;;;;;;20.54;100.00;100904.97;5044986;28;20045;-70
2023/06/26 04:53:21;;;;;;;17.48;8.55;;;;;;;20.45;100.00;100901.44;5041547;28;20053;-73
2023/06/26 04:55:49;;;;;;;17.35;8.68;;;;;;;20.53;100.00;100906.25;5047339;28;20056;-71
2023/06/26 04:58:16;;;;;;;18.67;8.48;;;;;;;20.53;100.00;100909.06;5040056;28;20049;-70
2023/06/26 05:00:43;;;;;;;23.08;9.32;;;;;;;20.49;100.00;100908.47;5040143;28;20076;-75
2023/06/26 05:03:11;;;;;;;15.45;6.38;;;;;;;20.44;100.00;100911.97;5039059;28;20048;-72
2023/06/26 05:05:38;;;;;;;16.90;8.25;;;;;;;20.57;100.00;100915.31;5038367;28;20052;-72
2023/06/26 05:08:18;;;;;;;19.02;7.20;;;;;;;20.54;100.00;100907.03;5043328;28;20072;-72
2023/06/26 05:10:45;;;;;;;20.35;8.75;;;;;;;20.51;100.00;100905.94;5041738;28;20076;-72
2023/06/26 05:13:14;;;;;;;19.85;7.10;;;;;;;20.52;100.00;100912.38;5047313;28;20114;-73
2023/06/26 05:15:42;;;;;;;17.48;7.65;;;;;;;20.62;100.00;100906.16;5047301;28;20044;-71
2023/06/26 05:18:08;;;;;;;13.68;6.18;;;;;;;20.63;100.00;100912.59;5043466;28;20083;-72
2023/06/26 05:20:36;;;;;;;14.68;6.80;;;;;;;20.70;100.00;100917.88;5040395;28;20545;-75
2023/06/26 05:23:03;;;;;;;16.60;6.57;;;;;;;20.70;100.00;100927.16;5039230;28;20139;-74
2023/06/26 05:25:36;;;;;;;16.02;6.85;;;;;;;20.74;100.00;100926.97;5048120;28;20091;-74
2023/06/26 05:28:05;;;;;;;14.07;6.82;;;;;;;20.74;100.00;100924.91;5046302;28;20045;-73
2023/06/26 05:30:35;;;;;;;15.30;7.53;;;;;;;20.66;100.00;100932.19;5049666;28;20073;-75
2023/06/26 05:33:03;;;;;;;18.50;8.05;;;;;;;20.75;100.00;100937.78;5045925;28;20049;-74
2023/06/26 05:35:30;;;;;;;29.13;8.85;;;;;;;20.81;100.00;100935.84;5031890;28;20587;-74
2023/06/26 05:37:58;;;;;;;15.82;6.40;;;;;;;20.82;100.00;100945.13;5029835;28;20057;-75
2023/06/26 05:40:25;;;;;;;12.45;5.78;;;;;;;20.79;100.00;100952.50;5031883;28;20045;-74
2023/06/26 05:42:52;;;;;;;18.60;5.47;;;;;;;20.81;100.00;100949.97;5037904;28;20056;-76
2023/06/26 05:45:18;;;;;;;9.38;3.22;;;;;;;20.74;100.00;100958.81;5040578;28;20119;-72
2023/06/26 05:47:46;;;;;;;13.45;5.65;;;;;;;20.62;100.00;100961.91;5029737;28;20549;-79
2023/06/26 05:50:13;;;;;;;8.40;3.30;;;;;;;20.75;100.00;100971.69;5037440;28;20156;-78
2023/06/26 05:52:40;;;;;;;14.48;6.05;;;;;;;20.95;100.00;100962.59;5029173;28;20156;-78
2023/06/26 05:55:07;;;;;;;14.82;5.32;;;;;;;20.95;100.00;100968.25;5029873;28;20144;-77
2023/06/26 05:57:35;;;;;;;15.68;6.18;;;;;;;21.02;100.00;100963.03;5038178;28;20056;-77
2023/06/26 06:00:03;;;;;;;12.57;5.20;;;;;;;20.96;100.00;100964.19;5050805;28;20114;-75
2023/06/26 06:02:29;;;;;;;9.88;4.20;;;;;;;20.70;100.00;100963.88;5047390;28;20045;-75
2023/06/26 06:04:57;;;;;;;15.80;5.38;;;;;;;20.63;100.00;100955.78;5039171;28;20055;-76
2023/06/26 06:07:23;;;;;;;14.23;6.30;;;;;;;20.84;100.00;100957.50;5041297;28;20095;-76
2023/06/26 06:09:52;;;;;;;18.65;6.60;;;;;;;20.89;100.00;100965.28;5032409;28;20061;-78
2023/06/26 06:12:19;;;;;;;18.25;6.47;;;;;;;20.91;100.00;100974.09;5041008;28;20049;-77
2023/06/26 06:14:45;;;;;;;16.73;6.25;;;;;;;20.85;100.00;100972.38;5045327;28;20084;-76
2023/06/26 06:17:12;;;;;;;15.35;5.97;;;;;;;20.99;100.00;100975.28;5040382;28;20456;-75
2023/06/26 06:19:38;;;;;;;18.33;6.43;;;;;;;21.05;100.00;100970.53;5037484;28;20243;-75
2023/06/26 06:22:05;;;;;;;18.17;5.40;;;;;;;20.98;100.00;100973.75;5040385;28;20140;-72
2023/06/26 06:24:31;;;;;;;9.10;3.40;;;;;;;20.93;100.00;100967.94;5039451;28;20073;-76
2023/06/26 06:26:58;;;;;;;13.95;4.82;;;;;;;20.99;100.00;100974.53;5028780;28;20095;-72
2023/06/26 06:29:24;;;;;;;6.57;2.85;;;;;;;20.78;100.00;100975.59;5029170;28;20085;-77
2023/06/26 06:31:51;;;;;;;18.85;5.38;;;;;;;20.91;100.00;100985.38;5035927;28;20053;-75
2023/06/26 06:34:18;;;;;;;11.15;2.90;;;;;;;20.93;100.00;100997.00;5028752;28;20060;-72
2023/06/26 06:36:44;;;;;;;17.98;7.05;;;;;;;21.08;100.00;100999.88;5035937;28;20077;-72
2023/06/26 06:39:11;;;;;;;12.85;5.55;;;;;;;21.10;100.00;101003.78;5029247;28;20085;-71
2023/06/26 06:41:38;;;;;;;16.27;5.55;;;;;;;21.23;100.00;100990.16;5053207;28;20045;-75
2023/06/26 06:44:04;;;;;;;14.20;5.32;;;;;;;21.25;100.00;100986.84;5057727;28;20167;-73
2023/06/26 06:46:31;;;;;;;18.20;5.93;;;;;;;21.16;100.00;101001.09;5055588;28;20044;-71
2023/06/26 06:48:57;;;;;;;18.88;6.38;;;;;;;20.95;100.00;100994.50;5031947;28;20049;-73
2023/06/26 06:51:24;;;;;;;13.30;5.72;;;;;;;20.82;100.00;101004.47;5047671;28;20061;-72
2023/06/26 06:53:50;;;;;;;21.48;7.03;;;;;;;20.86;100.00;101022.00;5045309;28;20380;-75
2023/06/26 06:56:17;;;;;;;14.68;6.13;;;;;;;20.78;100.00;101041.34;5041113;28;20080;-71
2023/06/26 06:58:46;;;;;;;17.00;5.82;;;;;;;20.62;100.00;101030.47;5035944;28;20103;-75
2023/06/26 07:01:13;;;;;;;24.92;6.40;;;;;;;20.77;100.00;101047.47;5047026;28;20572;-70
2023/06/26 07:03:40;;;;;;;15.77;5.57;;;;;;;20.87;100.00;101046.16;5046441;28;20044;-76
2023/06/26 07:06:07;;;;;;;17.40;6.13;;;;;;;20.75;100.00;101047.97;5047388;28;20195;-75
2023/06/26 07:08:34;;;;;;;16.23;5.57;;;;;;;20.61;100.00;101051.50;5035206;28;20593;-74
2023/06/26 07:11:01;;;;;;;16.88;5.88;;;;;;;20.44;100.00;101052.34;5042440;28;20725;-74
2023/06/26 07:13:27;;;;;;;19.35;6.55;;;;;;;20.62;100.00;101058.69;5047232;28;20119;-74
2023/06/26 07:15:54;;;;;;;11.18;3.70;;;;;;;20.54;100.00;101065.97;5044000;28;20045;-75
2023/06/26 07:18:21;;;;;;;18.05;5.28;;;;;;;20.61;100.00;101057.16;5053076;28;20053;-73
2023/06/26 07:20:47;;;;;;;20.70;6.72;;;;;;;20.69;100.00;101041.41;5035263;28;20605;-73
2023/06/26 07:23:14;;;;;;;18.40;6.07;;;;;;;20.77;100.00;101053.13;5044644;28;20052;-74
2023/06/26 07:25:40;;;;;;;17.52;4.72;;;;;;;20.75;100.00;101050.00;5046818;28;20053;-75
2023/06/26 07:28:11;;;;;;;16.92;7.22;;;;;;;20.90;100.00;101051.66;5041355;28;20085;-73
2023/06/26 07:30:38;;;;;;;14.88;5.40;;;;;;;21.03;100.00;101055.03;5042301;28;20135;-73
2023/06/26 07:33:05;;;;;;;11.10;4.38;;;;;;;20.99;100.00;101065.75;5045874;28;20435;-74
2023/06/26 07:35:31;;;;;;;15.15;6.63;;;;;;;20.91;100.00;101061.69;5039539;28;20049;-74
2023/06/26 07:37:58;;;;;;;22.25;8.40;;;;;;;21.08;100.00;101050.75;5036284;28;20091;-67
2023/06/26 07:40:26;;;;;;;21.23;7.43;;;;;;;21.16;100.00;101046.31;5045391;28;20091;-73
2023/06/26 07:42:53;;;;;;;15.30;4.72;;;;;;;21.17;100.00;101040.16;5047340;28;20140;-71
2023/06/26 07:45:20;;;;;;;16.73;5.90;;;;;;;21.33;100.00;101059.53;5047331;28;20059;-71
2023/06/26 07:47:48;;;;;;;13.15;4.53;;;;;;;21.20;100.00;101056.16;5043421;28;20183;-68
2023/06/26 07:50:22;;;;;;;17.15;6.88;;;;;;;21.37;100.00;101056.50;5045162;28;20163;-72
2023/06/26 07:52:48;;;;;;;25.52;7.80;;;;;;;21.41;100.00;101057.91;5033490;28;20045;-69
2023/06/26 07:55:15;;;;;;;8.60;3.20;;;;;;;21.24;100.00;101053.16;5045633;28;20734;-71
2023/06/26 07:57:42;;;;;;;8.18;2.78;;;;;;;21.39;100.00;101059.63;5043460;28;20098;-70
2023/06/26 08:00:09;;;;;;;21.00;7.88;;;;;;;21.53;100.00;101064.53;5033203;28;20644;-69
2023/06/26 08:02:35;;;;;;;17.88;7.28;;;;;;;21.66;100.00;101065.06;5046710;28;20060;-71
2023/06/26 08:05:02;;;;;;;25.33;8.48;;;;;;;21.70;100.00;101069.28;5050022;28;20060;-70
2023/06/26 08:07:29;;;;;;;7.70;2.95;;;;;;;21.54;100.00;101075.38;5042137;28;20048;-69
2023/06/26 08:09:56;;;;;;;18.65;7.30;;;;;;;21.98;100.00;101081.13;5038782;28;20049;-69
2023/06/26 08:12:22;;;;;;;20.58;6.55;;;;;;;22.08;100.00;101077.69;5047004;28;20844;-69
2023/06/26 08:14:49;;;;;;;22.13;7.60;;;;;;;22.08;100.00;101088.25;5044071;28;20127;-69
2023/06/26 08:17:15;;;;;;;26.70;7.25;;;;;;;21.91;100.00;101082.28;5046902;28;20144;-69
2023/06/26 08:19:42;;;;;;;15.82;6.03;;;;;;;21.82;100.00;101093.69;5041921;28;20076;-69
2023/06/26 08:22:08;;;;;;;18.63;7.28;;;;;;;21.94;100.00;101086.97;5046558;28;20126;-69
2023/06/26 08:24:36;;;;;;;18.20;6.30;;;;;;;22.04;100.00;101087.66;5045688;28;20053;-69
2023/06/26 08:27:03;;;;;;;20.75;7.65;;;;;;;22.23;100.00;101099.56;5040813;28;20076;-68
2023/06/26 08:29:30;;;;;;;19.40;4.65;;;;;;;22.13;100.00;101100.94;5037013;28;20080;-68
2023/06/26 08:31:56;;;;;;;17.13;5.65;;;;;;;22.51;100.00;101115.78;5043714;28;20562;-69
2023/06/26 08:34:24;;;;;;;14.65;5.40;;;;;;;22.51;100.00;101112.19;5036664;28;20132;-69
2023/06/26 08:36:51;;;;;;;7.90;2.63;;;;;;;22.11;100.00;101107.84;5048930;28;20487;-69
2023/06/26 08:39:18;;;;;;;11.82;4.75;;;;;;;22.31;100.00;101120.59;5049471;28;20114;-68
2023/06/26 08:41:45;;;;;;;13.23;5.85;;;;;;;22.36;100.00;101109.34;5049498;28;20114;-68
2023/06/26 08:44:11;;;;;;;15.02;6.07;;;;;;;22.36;100.00;101120.69;5044006;28;20159;-68
2023/06/26 08:46:38;;;;;;;13.20;3.45;;;;;;;21.88;100.00;101116.44;5055391;28;20495;-68
2023/06/26 08:49:17;;;;;;;13.20;5.03;;;;;;;22.08;100.00;101116.56;5037590;28;20080;-69
2023/06/26 08:51:51;;;;;;;18.33;5.93;;;;;;;22.14;100.00;101117.41;5050627;28;20053;-68
2023/06/26 08:54:23;;;;;;;16.00;5.68;;;;;;;22.49;100.00;101131.72;5053051;28;20107;-69
2023/06/26 08:56:50;;;;;;;16.58;5.82;;;;;;;22.57;100.00;101125.16;5044146;28;20865;-69
2023/06/26 08:59:17;;;;;;;19.80;5.88;;;;;;;22.58;100.00;101126.69;5023927;28;20518;-71
2023/06/26 09:01:45;;;;;;;21.45;6.45;;;;;;;22.75;100.00;101136.25;5037198;28;20104;-68
2023/06/26 09:04:12;;;;;;;16.75;5.47;;;;;;;22.97;100.00;101130.16;5047369;28;20066;-72
2023/06/26 09:06:39;;;;;;;15.13;4.70;;;;;;;23.22;100.00;101123.84;5037712;28;20155;-71
2023/06/26 09:09:06;;;;;;;14.02;5.18;;;;;;;23.04;100.00;101130.53;5036665;28;20060;-72
2023/06/26 09:11:32;;;;;;;12.95;2.80;;;;;;;22.54;100.00;101148.03;5046311;28;20594;-69
2023/06/26 09:13:59;;;;;;;17.15;5.25;;;;;;;22.51;100.00;101146.94;5040809;28;20076;-69
2023/06/26 09:16:26;;;;;;;17.08;5.47;;;;;;;22.56;100.00;101145.47;5041066;28;20049;-71
2023/06/26 09:18:54;;;;;;;17.20;5.50;;;;;;;22.69;100.00;101149.56;5043463;28;20503;-68
2023/06/26 09:21:22;;;;;;;15.50;5.20;;;;;;;22.79;100.00;101144.56;5047828;28;20061;-69
2023/06/26 09:23:49;;;;;;;19.80;5.65;;;;;;;22.85;100.00;101132.03;5046135;28;20063;-68
2023/06/26 09:26:17;;;;;;;15.82;4.28;;;;;;;22.69;100.00;101138.22;5043433;28;20146;-70
2023/06/26 09:28:44;;;;;;;4.15;2.22;;;;;;;22.61;100.00;101139.91;5049780;28;20123;-70
2023/06/26 09:31:10;;;;;;;2.33;1.83;;;;;;;22.56;100.00;101134.13;5044481;28;20049;-69
2023/06/26 09:33:38;;;;;;;13.07;4.40;;;;;;;22.93;100.00;101127.53;5044018;28;20107;-69
2023/06/26 09:36:12;;;;;;;7.82;2.35;;;;;;;22.75;100.00;101139.09;5049019;28;20472;-69
2023/06/26 09:38:38;;;;;;;15.02;4.38;;;;;;;22.85;100.00;101143.34;5047725;28;20124;-69
2023/06/26 09:41:05;;;;;;;15.82;5.35;;;;;;;23.11;100.00;101140.69;5042574;28;20052;-68
2023/06/26 09:43:32;;;;;;;17.60;5.25;;;;;;;23.24;100.00;101143.97;5050664;28;20072;-68
2023/06/26 09:46:00;;;;;;;15.75;4.03;;;;;;;23.29;100.00;101146.09;5045192;28;20041;-70
2023/06/26 09:48:28;;;;;;;14.13;5.10;;;;;;;23.26;100.00;101152.75;5033795;28;20049;-71
2023/06/26 09:50:55;;;;;;;11.50;4.47;;;;;;;22.98;100.00;101148.75;5039368;28;20135;-73
2023/06/26 09:53:37;;;;;;;10.82;4.20;;;;;;;23.18;100.00;101140.25;5039472;28;20052;-69
2023/06/26 09:56:07;;;;;;;14.80;4.60;;;;;;;23.39;100.00;101147.53;5044090;28;20107;-73
2023/06/26 09:58:37;;;;;;;13.98;4.20;;;;;;;23.40;100.00;101154.75;5038610;28;20049;-72
2023/06/26 10:01:03;;;;;;;12.73;3.90;;;;;;;23.66;100.00;101147.88;5048061;28;20128;-72
2023/06/26 10:03:30;;;;;;;13.77;4.47;;;;;;;23.73;100.00;101149.53;5048294;28;20073;-73
2023/06/26 10:05:57;;;;;;;10.70;4.03;;;;;;;24.06;100.00;101147.81;5042453;28;20128;-77
2023/06/26 10:08:24;;;;;;;12.40;4.18;;;;;;;23.99;100.00;101167.34;5045243;28;20050;-73
2023/06/26 10:10:52;;;;;;;11.65;3.72;;;;;;;23.94;100.00;101162.41;5047271;28;20052;-72
2023/06/26 10:13:26;;;;;;;9.45;3.42;;;;;;;24.06;100.00;101166.91;5043832;28;20636;-70
2023/06/26 10:15:53;;;;;;;11.50;3.83;;;;;;;24.16;100.00;101165.47;5047447;28;20120;-69
2023/06/26 10:18:25;;;;;;;8.98;3.50;;;;;;;24.32;100.00;101162.06;5042506;28;20781;-68
2023/06/26 10:20:55;;;;;;;8.25;3.03;;;;;;;24.28;100.00;101158.66;5047665;28;20056;-71
2023/06/26 10:23:24;;;;;;;9.20;3.67;;;;;;;24.09;100.00;101161.03;5051807;28;20144;-68
2023/06/26 10:25:51;;;;;;;10.93;3.97;;;;;;;24.13;100.00;101166.50;5034286;28;20102;-68
2023/06/26 10:28:21;;;;;;;13.55;3.47;;;;;;;24.17;100.00;101153.63;5035517;28;20049;-69
2023/06/26 10:30:50;;;;;;;7.88;3.00;;;;;;;24.30;100.00;101161.78;5046728;28;20845;-67
2023/06/26 10:33:18;;;;;;;13.18;4.47;;;;;;;24.49;100.00;101154.47;5047893;28;20059;-68
2023/06/26 10:35:45;;;;;;;8.27;3.58;;;;;;;24.67;100.00;101165.47;5035569;28;20049;-68
2023/06/26 10:38:12;;;;;;;10.45;2.97;;;;;;;24.78;100.00;101168.41;5047338;28;20103;-71
2023/06/26 10:40:50;;;;;;;13.48;4.18;;;;;;;24.64;100.00;101166.50;5041003;28;20421;-66
2023/06/26 10:43:18;;;;;;;12.35;3.60;;;;;;;24.82;100.00;101162.47;5041432;28;20057;-68
2023/06/26 10:45:46;;;;;;;11.82;2.78;;;;;;;24.61;100.00;101172.41;5041934;28;20057;-70
2023/06/26 10:48:14;;;;;;;9.27;3.10;;;;;;;24.89;100.00;101168.50;5041914;28;20052;-65
2023/06/26 10:50:41;;;;;;;9.25;2.83;;;;;;;24.57;100.00;101174.69;5045097;28;20061;-68
2023/06/26 10:53:18;;;;;;;11.98;3.03;;;;;;;24.57;100.00;101169.00;5041836;28;20171;-71
2023/06/26 10:56:05;;;;;;;10.75;3.40;;;;;;;24.55;100.00;101171.56;5043926;28;20071;-70
2023/06/26 10:58:41;;;;;;;8.30;3.45;;;;;;;24.92;100.00;101172.41;5037617;28;20053;-68
2023/06/26 11:01:15;;;;;;;11.57;3.90;;;;;;;24.97;100.00;101186.66;5036577;28;20085;-71
2023/06/26 11:03:45;;;;;;;12.13;3.53;;;;;;;24.75;100.00;101188.53;5032975;28;20057;-72
2023/06/26 11:06:14;;;;;;;19.55;4.57;;;;;;;24.75;100.00;101200.69;5030096;28;20229;-70
2023/06/26 11:08:46;;;;;;;14.00;4.10;;;;;;;24.22;100.00;101212.59;5037573;28;20137;-73
2023/06/26 11:11:13;;;;;;;11.55;3.85;;;;;;;24.26;100.00;101204.63;5028430;28;20537;-69